TimeEST,TemperatureF,Dew PointF,Humidity,Sea Level PressureIn,VisibilityMPH,Wind Direction,Wind SpeedMPH,Gust SpeedMPH,PrecipitationIn,Events,Conditions,WindDirDegrees,DateUTC
12:14 AM,16.3,3.7,58,30.51,10.0,Calm,Calm,-,N/A,,Clear,0,2013-01-25 05:14:00
12:35 AM,16.3,4.3,59,30.50,10.0,Calm,Calm,-,N/A,,Clear,0,2013-01-25 05:35:00
12:55 AM,16.5,4.8,60,30.50,10.0,Calm,Calm,-,N/A,,Scattered Clouds,0,2013-01-25 05:55:00
1:14 AM,16.5,5.0,61,30.49,10.0,Calm,Calm,-,N/A,,Mostly Cloudy,0,2013-01-25 06:14:00
1:35 AM,16.7,5.5,62,30.47,10.0,Calm,Calm,-,N/A,,Overcast,0,2013-01-25 06:35:00
1:54 AM,16.7,5.7,62,30.47,10.0,Calm,Calm,-,N/A,,Overcast,0,2013-01-25 06:54:00
2:14 AM,16.7,5.7,62,30.47,10.0,Calm,Calm,-,N/A,,Overcast,0,2013-01-25 07:14:00
2:35 AM,17.2,6.4,63,30.46,10.0,Calm,Calm,-,N/A,,Overcast,0,2013-01-25 07:35:00
2:54 AM,17.4,6.6,63,30.45,10.0,Calm,Calm,-,N/A,,Overcast,0,2013-01-25 07:54:00
3:14 AM,17.6,7.2,64,30.43,10.0,Calm,Calm,-,N/A,,Overcast,0,2013-01-25 08:14:00
3:35 AM,18.1,7.9,64,30.42,10.0,Calm,Calm,-,N/A,,Overcast,0,2013-01-25 08:35:00
3:54 AM,18.3,8.4,65,30.41,10.0,Calm,Calm,-,N/A,,Overcast,0,2013-01-25 08:54:00
4:14 AM,18.3,8.2,65,30.40,10.0,Calm,Calm,-,N/A,,Overcast,0,2013-01-25 09:14:00
4:35 AM,18.5,8.4,65,30.38,10.0,Calm,Calm,-,N/A,,Overcast,0,2013-01-25 09:35:00
4:54 AM,18.5,8.4,65,30.38,10.0,Calm,Calm,-,N/A,,Overcast,0,2013-01-25 09:54:00
5:14 AM,18.9,8.6,64,30.37,10.0,Calm,Calm,-,N/A,,Overcast,0,2013-01-25 10:14:00
5:35 AM,19.0,8.6,64,30.34,10.0,Calm,Calm,-,N/A,,Overcast,0,2013-01-25 10:35:00
5:54 AM,19.2,8.6,63,30.32,10.0,Calm,Calm,-,N/A,,Overcast,0,2013-01-25 10:54:00
6:15 AM,19.4,8.6,63,30.31,10.0,Calm,Calm,-,N/A,,Overcast,0,2013-01-25 11:15:00
6:35 AM,19.8,8.6,62,30.31,10.0,Calm,Calm,-,N/A,,Overcast,0,2013-01-25 11:35:00
6:54 AM,19.8,8.6,62,30.30,10.0,Calm,Calm,-,N/A,,Overcast,0,2013-01-25 11:54:00
7:15 AM,20.1,8.4,61,30.28,10.0,Calm,Calm,-,N/A,,Overcast,0,2013-01-25 12:15:00
7:34 AM,20.3,7.7,58,30.27,10.0,Calm,Calm,-,N/A,,Overcast,0,2013-01-25 12:34:00
7:54 AM,20.8,7.5,56,30.26,10.0,SE,3.5,-,N/A,,Overcast,140,2013-01-25 12:54:00
8:34 AM,21.2,7.2,55,30.25,10.0,SSE,9.2,16.1,N/A,,Overcast,160,2013-01-25 13:34:00
8:54 AM,21.0,9.7,62,30.24,3.0,SSE,6.9,-,N/A,Snow,Light Snow,160,2013-01-25 13:54:00
9:15 AM,20.3,11.5,69,30.23,2.5,SSE,8.1,-,N/A,Snow,Light Snow,160,2013-01-25 14:15:00
9:34 AM,20.1,12.2,71,30.22,1.2,SSE,9.2,-,N/A,Snow,Light Snow,150,2013-01-25 14:34:00
9:54 AM,20.3,13.8,76,30.22,1.2,SSE,3.5,-,N/A,Snow,Light Snow,160,2013-01-25 14:54:00
10:15 AM,20.3,14.4,78,30.22,1.2,Calm,Calm,-,N/A,Snow,Light Snow,0,2013-01-25 15:15:00
10:34 AM,20.5,14.9,79,30.21,1.2,SE,6.9,-,N/A,Snow,Light Snow,130,2013-01-25 15:34:00
10:54 AM,20.8,15.1,78,30.20,1.0,ESE,5.8,-,N/A,Snow,Light Snow,120,2013-01-25 15:54:00
11:15 AM,21.0,14.9,77,30.19,1.5,Calm,Calm,-,N/A,Snow,Light Snow,0,2013-01-25 16:15:00
11:34 AM,21.7,15.3,76,30.17,1.8,SE,4.6,-,N/A,Snow,Light Snow,130,2013-01-25 16:34:00
11:55 AM,22.8,15.1,72,30.15,2.0,SE,5.8,-,N/A,Snow,Light Snow,140,2013-01-25 16:55:00
12:15 PM,23.0,15.6,73,30.15,2.0,Calm,Calm,-,N/A,Snow,Light Snow,0,2013-01-25 17:15:00
12:34 PM,23.0,16.3,76,30.13,1.0,SSE,6.9,-,N/A,Snow,Light Snow,160,2013-01-25 17:34:00
12:55 PM,22.6,18.3,83,30.11,0.2,South,6.9,-,N/A,Snow,Snow,180,2013-01-25 17:55:00
1:14 PM,23.5,18.1,80,30.10,0.5,SE,5.8,-,N/A,Snow,Light Snow,140,2013-01-25 18:14:00
1:34 PM,23.5,17.4,77,30.08,0.8,SSE,6.9,-,N/A,Snow,Light Snow,150,2013-01-25 18:34:00
2:14 PM,23.7,18.5,80,30.07,0.8,South,6.9,-,N/A,Snow,Light Snow,170,2013-01-25 19:14:00
2:35 PM,23.9,16.7,74,30.06,5.0,South,6.9,-,N/A,Snow,Light Snow,190,2013-01-25 19:35:00
2:55 PM,23.9,18.1,79,30.05,1.0,SSE,5.8,-,N/A,Snow,Light Snow,160,2013-01-25 19:55:00
3:14 PM,24.3,17.8,76,30.05,2.5,SSE,5.8,-,N/A,Snow,Light Snow,160,2013-01-25 20:14:00
3:35 PM,23.7,16.9,75,30.05,1.8,South,6.9,-,N/A,Snow,Light Snow,170,2013-01-25 20:35:00
3:54 PM,23.7,16.7,75,30.04,4.0,South,6.9,-,N/A,Snow,Light Snow,170,2013-01-25 20:54:00
4:14 PM,23.5,16.9,76,30.04,5.0,South,3.5,-,N/A,Snow,Light Snow,170,2013-01-25 21:14:00
4:35 PM,23.4,17.1,77,30.04,4.0,SSE,5.8,-,N/A,Snow,Light Snow,150,2013-01-25 21:35:00
4:54 PM,23.4,17.4,78,30.03,4.0,South,4.6,-,N/A,Snow,Light Snow,170,2013-01-25 21:54:00
5:14 PM,22.8,17.6,80,30.03,2.0,South,4.6,-,N/A,Snow,Light Snow,170,2013-01-25 22:14:00
5:35 PM,22.8,17.8,81,30.03,2.5,South,3.5,-,N/A,Snow,Light Snow,170,2013-01-25 22:35:00
5:54 PM,22.6,17.6,81,30.03,4.0,South,6.9,-,N/A,Snow,Light Snow,170,2013-01-25 22:54:00
6:14 PM,22.6,17.6,81,30.03,7.0,South,5.8,-,N/A,Snow,Light Snow,170,2013-01-25 23:14:00
6:34 PM,22.6,17.2,80,30.05,5.0,SSW,4.6,-,N/A,Snow,Light Snow,210,2013-01-25 23:34:00
6:54 PM,22.6,18.0,82,30.05,2.0,SSW,3.5,-,N/A,Snow,Light Snow,200,2013-01-25 23:54:00
7:15 PM,22.5,18.3,84,30.05,2.5,Calm,Calm,-,N/A,Snow,Light Snow,0,2013-01-26 00:15:00
7:34 PM,22.6,18.5,84,30.05,4.0,Calm,Calm,-,N/A,Snow,Light Snow,0,2013-01-26 00:34:00
7:54 PM,22.6,18.9,85,30.05,7.0,South,3.5,-,N/A,Snow,Light Snow,190,2013-01-26 00:54:00
8:15 PM,22.6,18.5,84,30.05,7.0,SW,3.5,-,N/A,Snow,Light Snow,220,2013-01-26 01:15:00
8:34 PM,22.6,18.5,84,30.05,2.5,Calm,Calm,-,N/A,Snow,Light Snow,0,2013-01-26 01:34:00
8:55 PM,22.6,18.9,85,30.05,3.0,SSW,4.6,-,N/A,Snow,Light Snow,200,2013-01-26 01:55:00
9:14 PM,22.8,18.9,85,30.05,5.0,Calm,Calm,-,N/A,Snow,Light Snow,0,2013-01-26 02:14:00
9:34 PM,22.8,19.0,85,30.05,5.0,South,4.6,-,N/A,Snow,Light Snow,190,2013-01-26 02:34:00
9:55 PM,22.8,19.0,85,30.05,7.0,South,3.5,-,N/A,Snow,Light Snow,190,2013-01-26 02:55:00
10:14 PM,22.6,18.9,85,30.05,10.0,Calm,Calm,-,N/A,,Overcast,0,2013-01-26 03:14:00
10:34 PM,22.8,18.9,85,30.05,10.0,South,4.6,-,N/A,,Overcast,190,2013-01-26 03:34:00
10:55 PM,22.8,18.9,85,30.05,10.0,SSW,4.6,-,N/A,,Overcast,210,2013-01-26 03:55:00
11:14 PM,22.6,18.5,84,30.05,10.0,Calm,Calm,-,N/A,,Overcast,0,2013-01-26 04:14:00
11:34 PM,22.6,18.5,84,30.05,10.0,SSW,3.5,-,N/A,,Overcast,210,2013-01-26 04:34:00
11:54 PM,22.8,18.5,83,30.06,10.0,SW,4.6,-,N/A,,Overcast,220,2013-01-26 04:54:00